createdAt,value
2022-12-13T00:01:29.730Z,30.47
2022-12-13T00:03:58.885Z,30.07
2022-12-13T00:06:29.082Z,30.73
2022-12-13T00:08:56.798Z,29.43
2022-12-13T00:11:24.525Z,31.57
2022-12-13T00:13:52.291Z,30.40
2022-12-13T00:16:22.843Z,31.03
2022-12-13T00:18:52.334Z,29.30
2022-12-13T00:21:21.996Z,29.30
2022-12-13T00:23:51.612Z,28.40
2022-12-13T00:26:20.898Z,28.27
2022-12-13T00:28:49.518Z,29.57
2022-12-13T00:31:53.550Z,30.77
2022-12-13T00:34:05.759Z,30.10
2022-12-13T00:36:33.506Z,30.43
2022-12-13T00:39:02.794Z,29.77
2022-12-13T00:41:32.676Z,27.73
2022-12-13T00:44:01.620Z,27.67
2022-12-13T00:46:30.378Z,28.77
2022-12-13T00:49:01.032Z,29.97
2022-12-13T00:51:30.852Z,27.90
2022-12-13T00:53:59.145Z,28.07
2022-12-13T00:56:30.889Z,28.57
2022-12-13T00:58:59.138Z,28.87
2022-12-13T01:01:29.158Z,27.73
2022-12-13T01:03:59.365Z,26.13
2022-12-13T01:06:30.285Z,26.73
2022-12-13T01:08:57.994Z,27.67
2022-12-13T01:11:27.797Z,28.03
2022-12-13T01:13:55.551Z,28.23
2022-12-13T01:16:23.380Z,28.43
2022-12-13T01:18:51.439Z,28.07
2022-12-13T01:21:21.028Z,27.53
2022-12-13T01:23:50.412Z,27.93
2022-12-13T01:26:21.623Z,26.10
2022-12-13T01:28:51.003Z,27.67
2022-12-13T01:31:21.599Z,28.60
2022-12-13T01:33:50.263Z,27.63
2022-12-13T01:36:27.025Z,27.30
2022-12-13T01:38:58.172Z,26.37
2022-12-13T01:41:27.779Z,26.67
2022-12-13T01:44:01.321Z,28.70
2022-12-13T01:46:29.091Z,27.00
2022-12-13T01:49:02.442Z,27.87
2022-12-13T01:51:35.149Z,26.37
2022-12-13T01:54:05.413Z,25.70
2022-12-13T01:56:37.100Z,27.87
2022-12-13T01:59:09.262Z,26.50
2022-12-13T02:01:37.656Z,26.00
2022-12-13T02:04:05.742Z,26.50
2022-12-13T02:06:36.115Z,26.50
2022-12-13T02:09:06.921Z,26.03
2022-12-13T02:11:36.312Z,25.53
2022-12-13T02:14:05.381Z,25.70
2022-12-13T02:16:48.801Z,27.27
2022-12-13T02:19:53.057Z,26.40
2022-12-13T02:22:38.715Z,26.53
2022-12-13T02:25:37.015Z,26.40
2022-12-13T02:28:31.605Z,25.67
2022-12-13T02:31:08.472Z,25.93
2022-12-13T02:33:45.725Z,24.13
2022-12-13T02:36:18.693Z,26.10
2022-12-13T02:38:53.991Z,25.27
2022-12-13T02:41:28.139Z,24.73
2022-12-13T02:44:02.055Z,25.97
2022-12-13T02:46:38.232Z,24.87
2022-12-13T02:49:10.189Z,25.27
2022-12-13T02:51:39.681Z,24.73
2022-12-13T02:54:07.418Z,25.53
2022-12-13T02:56:35.096Z,24.47
2022-12-13T02:59:10.072Z,24.47
2022-12-13T03:01:53.495Z,24.97
2022-12-13T03:05:03.998Z,24.93
2022-12-13T03:07:39.792Z,24.47
2022-12-13T03:10:16.773Z,24.57
2022-12-13T03:13:12.823Z,22.50
2022-12-13T03:15:47.615Z,23.80
2022-12-13T03:18:19.797Z,24.10
2022-12-13T03:20:49.185Z,23.13
2022-12-13T03:23:18.480Z,23.13
2022-12-13T03:25:48.685Z,22.87
2022-12-13T03:28:16.747Z,25.43
2022-12-13T03:30:44.486Z,23.07
2022-12-13T03:33:12.213Z,23.93
2022-12-13T03:35:44.870Z,23.53
2022-12-13T03:38:22.126Z,23.03
2022-12-13T03:40:54.538Z,23.77
2022-12-13T03:43:23.226Z,23.50
2022-12-13T03:45:51.749Z,22.50
2022-12-13T03:48:22.629Z,24.47
2022-12-13T03:50:54.439Z,22.43
2022-12-13T03:53:33.309Z,22.57
2022-12-13T03:56:02.854Z,20.57
2022-12-13T03:58:36.640Z,23.80
2022-12-13T04:01:06.877Z,24.03
2022-12-13T04:03:34.739Z,23.20
2022-12-13T04:06:04.053Z,22.33
2022-12-13T04:08:31.759Z,22.67
2022-12-13T04:10:59.479Z,23.43
2022-12-13T04:13:35.305Z,23.57
2022-12-13T04:16:04.045Z,22.50
2022-12-13T04:18:32.085Z,22.30
2022-12-13T04:20:59.746Z,22.23
2022-12-13T04:23:28.755Z,23.47
2022-12-13T04:25:57.340Z,23.70
2022-12-13T04:28:24.968Z,22.60
2022-12-13T04:30:53.955Z,22.63
2022-12-13T04:33:22.560Z,22.10
2022-12-13T04:35:51.306Z,21.30
2022-12-13T04:38:19.777Z,22.90
2022-12-13T04:40:48.866Z,24.70
2022-12-13T04:43:16.531Z,24.93
2022-12-13T04:45:44.381Z,24.90
2022-12-13T04:48:12.052Z,24.33
2022-12-13T04:50:39.721Z,24.80
2022-12-13T04:53:07.348Z,23.47
2022-12-13T04:55:35.373Z,22.73
2022-12-13T04:58:04.953Z,24.10
2022-12-13T05:00:32.648Z,23.03
2022-12-13T05:03:00.444Z,23.73
2022-12-13T05:05:28.052Z,23.93
2022-12-13T05:07:56.510Z,22.87
2022-12-13T05:10:34.091Z,23.77
2022-12-13T05:13:07.164Z,23.70
2022-12-13T05:15:35.727Z,23.17
2022-12-13T05:18:09.809Z,22.33
2022-12-13T05:20:39.649Z,22.53
2022-12-13T05:23:07.574Z,23.87
2022-12-13T05:25:37.115Z,22.93
2022-12-13T05:28:08.866Z,22.37
2022-12-13T05:30:55.522Z,23.90
2022-12-13T05:33:23.882Z,22.93
2022-12-13T05:35:54.981Z,23.43
2022-12-13T05:38:25.630Z,24.00
2022-12-13T05:40:53.260Z,23.73
2022-12-13T05:43:23.846Z,24.07
2022-12-13T05:46:10.299Z,23.83
2022-12-13T05:48:38.115Z,23.80
2022-12-13T05:51:09.789Z,23.47
2022-12-13T05:53:40.267Z,25.53
2022-12-13T05:56:08.663Z,23.57
2022-12-13T05:58:38.822Z,24.00
2022-12-13T06:01:08.945Z,25.50
2022-12-13T06:03:37.311Z,24.40
2022-12-13T06:06:06.806Z,24.57
2022-12-13T06:08:35.233Z,23.50
2022-12-13T06:11:11.758Z,25.00
2022-12-13T06:13:43.472Z,24.27
2022-12-13T06:16:23.043Z,23.50
2022-12-13T06:19:01.005Z,23.03
2022-12-13T06:21:44.127Z,24.57
2022-12-13T06:24:15.982Z,24.60
2022-12-13T06:26:44.969Z,25.57
2022-12-13T06:29:22.537Z,23.63
2022-12-13T06:32:01.204Z,24.53
2022-12-13T06:34:31.319Z,24.13
2022-12-13T06:36:58.991Z,23.60
2022-12-13T06:39:32.234Z,25.03
2022-12-13T06:42:00.321Z,24.10
2022-12-13T06:44:29.548Z,24.37
2022-12-13T06:47:10.768Z,23.53
2022-12-13T06:49:41.008Z,25.50
2022-12-13T06:52:11.723Z,23.97
2022-12-13T06:54:39.869Z,24.43
2022-12-13T06:57:07.542Z,22.23
2022-12-13T06:59:37.272Z,23.77
2022-12-13T07:02:06.528Z,23.93
2022-12-13T07:04:52.471Z,23.40
2022-12-13T07:07:20.363Z,23.13
2022-12-13T07:09:47.978Z,23.07
2022-12-13T07:12:15.741Z,21.60
2022-12-13T07:14:45.314Z,23.60
2022-12-13T07:17:13.081Z,21.70
2022-12-13T07:20:00.874Z,24.17
2022-12-13T07:22:29.388Z,23.60
2022-12-13T07:25:03.133Z,24.90
2022-12-13T07:27:36.966Z,22.90
2022-12-13T07:30:08.172Z,24.10
2022-12-13T07:32:35.851Z,24.57
2022-12-13T07:35:03.713Z,23.07
2022-12-13T07:37:31.391Z,22.60
2022-12-13T07:40:03.930Z,23.17
2022-12-13T07:42:32.927Z,24.47
2022-12-13T07:45:01.151Z,24.17
2022-12-13T07:47:31.688Z,22.40
2022-12-13T07:49:59.559Z,23.63
2022-12-13T07:52:29.397Z,25.70
2022-12-13T07:54:57.082Z,22.83
2022-12-13T07:57:25.602Z,23.53
2022-12-13T07:59:53.236Z,23.93
2022-12-13T08:02:20.909Z,23.70
2022-12-13T08:04:54.476Z,24.23
2022-12-13T08:07:23.074Z,23.53
2022-12-13T08:09:52.993Z,22.27
2022-12-13T08:12:22.518Z,23.97
2022-12-13T08:14:53.178Z,24.10
2022-12-13T08:17:21.498Z,25.13
2022-12-13T08:19:50.658Z,24.33
2022-12-13T08:22:24.281Z,23.20
2022-12-13T08:24:52.217Z,24.93
2022-12-13T08:27:20.006Z,24.50
2022-12-13T08:29:47.638Z,23.70
2022-12-13T08:32:15.243Z,25.07
2022-12-13T08:34:43.347Z,24.40
2022-12-13T08:37:12.957Z,25.03
2022-12-13T08:39:41.147Z,25.70
2022-12-13T08:42:15.903Z,24.03
2022-12-13T08:44:46.468Z,22.57
2022-12-13T08:47:24.815Z,23.90
2022-12-13T08:50:02.902Z,24.10
2022-12-13T08:52:39.339Z,23.83
2022-12-13T08:55:09.769Z,24.20
2022-12-13T08:57:37.830Z,25.17
2022-12-13T09:00:06.202Z,25.37
2022-12-13T09:02:38.080Z,24.07
2022-12-13T09:05:08.299Z,25.50
2022-12-13T09:07:39.418Z,25.40
2022-12-13T09:10:26.329Z,25.00
2022-12-13T09:13:01.423Z,25.90
2022-12-13T09:15:34.588Z,24.83
2022-12-13T09:18:04.403Z,24.10
2022-12-13T09:20:41.131Z,24.77
2022-12-13T09:23:14.220Z,24.53
2022-12-13T09:26:05.648Z,25.13
2022-12-13T09:28:35.013Z,24.93
2022-12-13T09:31:03.270Z,23.03
2022-12-13T09:33:31.400Z,25.03
2022-12-13T09:36:01.365Z,26.20
2022-12-13T09:38:30.887Z,26.43
2022-12-13T09:41:12.447Z,25.10
2022-12-13T09:43:50.668Z,24.77
2022-12-13T09:46:27.504Z,25.77
2022-12-13T09:49:05.409Z,25.43
2022-12-13T09:51:46.667Z,25.67
2022-12-13T09:54:22.130Z,27.23
2022-12-13T09:56:51.624Z,25.87
2022-12-13T09:59:25.305Z,27.70
2022-12-13T10:01:53.034Z,25.70
2022-12-13T10:04:20.826Z,25.37
2022-12-13T10:06:53.471Z,26.10
2022-12-13T10:09:23.542Z,24.83
2022-12-13T10:11:53.098Z,24.80
2022-12-13T10:14:26.121Z,24.37
2022-12-13T10:16:57.870Z,25.43
2022-12-13T10:19:34.218Z,24.83
2022-12-13T10:22:04.108Z,24.63
2022-12-13T10:24:51.928Z,26.30
2022-12-13T10:27:21.291Z,25.90
2022-12-13T10:30:01.527Z,25.20
2022-12-13T10:32:29.928Z,25.97
2022-12-13T10:35:21.496Z,25.73
2022-12-13T10:37:49.434Z,24.97
2022-12-13T10:40:35.618Z,25.17
2022-12-13T10:43:13.964Z,25.50
2022-12-13T10:45:42.307Z,25.67
2022-12-13T10:48:21.048Z,24.67
2022-12-13T10:50:59.516Z,23.17
2022-12-13T10:53:32.316Z,25.43
2022-12-13T10:56:03.112Z,26.70
2022-12-13T10:58:39.813Z,26.40
2022-12-13T11:01:20.447Z,25.73
2022-12-13T11:04:02.313Z,26.20
2022-12-13T11:06:43.705Z,25.80
2022-12-13T11:09:23.057Z,25.13
2022-12-13T11:11:58.309Z,25.00
2022-12-13T11:14:31.673Z,24.53
2022-12-13T11:17:06.576Z,26.13
2022-12-13T11:19:39.768Z,25.97
2022-12-13T11:22:09.846Z,24.67
2022-12-13T11:24:42.161Z,24.17
2022-12-13T11:27:37.009Z,25.43
2022-12-13T11:30:12.874Z,26.20
2022-12-13T11:33:00.486Z,25.40
2022-12-13T11:35:35.109Z,24.27
2022-12-13T11:38:16.402Z,24.87
2022-12-13T11:40:50.334Z,24.10
2022-12-13T11:43:27.842Z,26.47
2022-12-13T11:45:59.384Z,26.63
2022-12-13T11:48:40.642Z,27.40
2022-12-13T11:51:12.491Z,25.77
2022-12-13T11:53:49.737Z,26.97
2022-12-13T11:56:25.370Z,24.63
2022-12-13T11:59:04.707Z,24.20
2022-12-13T12:01:39.037Z,25.07
2022-12-13T12:04:29.873Z,24.03
2022-12-13T12:07:30.633Z,24.97
2022-12-13T12:09:59.293Z,24.10
2022-12-13T12:12:32.961Z,24.03
2022-12-13T12:15:16.193Z,24.40
2022-12-13T12:17:44.776Z,24.37
2022-12-13T12:20:23.418Z,24.70
2022-12-13T12:23:04.349Z,24.07
2022-12-13T12:25:42.226Z,22.27
2022-12-13T12:28:22.821Z,23.43
2022-12-13T12:31:01.180Z,22.13
2022-12-13T12:33:37.844Z,22.60
2022-12-13T12:36:28.293Z,22.27
2022-12-13T12:39:28.234Z,22.70
2022-12-13T12:42:14.217Z,21.63
2022-12-13T12:44:49.346Z,23.60
2022-12-13T12:47:56.485Z,22.83
2022-12-13T12:50:34.493Z,22.53
2022-12-13T12:53:16.940Z,21.23
2022-12-13T12:55:53.690Z,21.40
2022-12-13T12:58:30.083Z,21.17
2022-12-13T13:01:13.439Z,21.87
2022-12-13T13:03:44.498Z,22.03
2022-12-13T13:06:16.581Z,21.60
2022-12-13T13:08:54.977Z,22.07
2022-12-13T13:11:26.002Z,21.60
2022-12-13T13:14:06.622Z,20.67
2022-12-13T13:16:37.889Z,21.00
2022-12-13T13:19:28.798Z,21.20
2022-12-13T13:22:01.477Z,21.17
2022-12-13T13:24:31.359Z,19.87
2022-12-13T13:27:00.675Z,20.30
2022-12-13T13:29:37.608Z,18.60
2022-12-13T13:32:29.579Z,20.27
2022-12-13T13:35:54.364Z,19.50
2022-12-13T13:38:50.766Z,18.70
2022-12-13T13:42:07.781Z,18.73
2022-12-13T13:45:08.057Z,18.20
2022-12-13T13:47:41.864Z,17.67
2022-12-13T13:50:39.602Z,17.30
2022-12-13T13:56:41.109Z,18.03
2022-12-13T13:59:52.653Z,18.53
2022-12-13T14:02:49.712Z,19.83
2022-12-13T14:05:53.488Z,18.00
2022-12-13T14:08:32.308Z,17.70
2022-12-13T14:11:21.038Z,19.10
2022-12-13T14:14:28.791Z,17.47
2022-12-13T14:17:56.431Z,18.90
2022-12-13T14:20:47.106Z,19.30
2022-12-13T14:23:25.600Z,18.97
2022-12-13T14:26:06.097Z,18.47
2022-12-13T14:28:46.035Z,17.50
2022-12-13T14:31:21.870Z,16.97
2022-12-13T14:33:52.112Z,17.57
2022-12-13T14:36:28.633Z,18.33
2022-12-13T14:39:03.757Z,17.43
2022-12-13T14:41:32.149Z,18.27
2022-12-13T14:46:57.566Z,18.03
2022-12-13T14:49:28.799Z,17.83
2022-12-13T14:52:01.411Z,17.53
2022-12-13T14:54:33.837Z,16.73
2022-12-13T14:57:04.356Z,17.43
2022-12-13T14:59:33.593Z,16.67
2022-12-13T15:02:04.457Z,15.77
2022-12-13T15:04:35.242Z,16.93
2022-12-13T15:07:07.469Z,17.00
2022-12-13T15:09:40.584Z,16.73
2022-12-13T15:12:15.337Z,17.10
2022-12-13T15:14:59.542Z,17.80
2022-12-13T15:17:33.145Z,17.77
2022-12-13T15:20:23.888Z,17.77
2022-12-13T15:23:03.502Z,18.17
2022-12-13T15:25:39.039Z,16.27
2022-12-13T15:28:07.841Z,20.10
2022-12-13T15:30:37.019Z,17.70
2022-12-13T15:33:08.854Z,16.53
2022-12-13T15:35:38.428Z,16.63
2022-12-13T15:38:06.162Z,17.23
2022-12-13T15:40:34.861Z,17.53
2022-12-13T15:43:02.773Z,14.97
2022-12-13T15:45:36.894Z,15.17
2022-12-13T15:48:07.079Z,14.33
2022-12-13T15:50:38.507Z,14.50
2022-12-13T15:53:24.001Z,13.73
2022-12-13T15:55:51.917Z,14.97
2022-12-13T15:58:27.710Z,14.27
2022-12-13T16:00:56.556Z,13.77
2022-12-13T16:03:28.886Z,14.63
2022-12-13T16:05:58.962Z,14.47
2022-12-13T16:08:31.450Z,15.63
2022-12-13T16:11:00.140Z,14.33
2022-12-13T16:13:32.161Z,14.53
2022-12-13T16:16:09.293Z,15.33
2022-12-13T16:18:47.557Z,15.20
2022-12-13T16:21:15.659Z,13.87
2022-12-13T16:23:48.870Z,13.97
2022-12-13T16:26:23.010Z,13.97
2022-12-13T16:28:50.967Z,15.90
2022-12-13T16:31:22.533Z,17.63
2022-12-13T16:33:52.445Z,17.00
2022-12-13T16:36:20.564Z,16.03
2022-12-13T16:38:48.303Z,17.27
2022-12-13T16:41:16.342Z,17.03
2022-12-13T16:43:52.846Z,17.13
2022-12-13T16:47:17.115Z,16.17
2022-12-13T16:49:21.487Z,17.07
2022-12-13T16:51:49.851Z,18.30
2022-12-13T16:54:19.091Z,18.07
2022-12-13T16:56:47.145Z,15.77
2022-12-13T16:59:15.832Z,16.27
2022-12-13T17:01:45.219Z,18.13
2022-12-13T17:04:20.673Z,18.43
2022-12-13T17:06:49.798Z,18.07
2022-12-13T17:09:18.369Z,15.83
2022-12-13T17:11:46.485Z,16.07
2022-12-13T17:14:15.198Z,14.93
2022-12-13T17:16:42.987Z,16.17
2022-12-13T17:19:14.460Z,16.10
2022-12-13T17:21:43.827Z,14.87
2022-12-13T17:24:13.399Z,15.57
2022-12-13T17:26:54.454Z,16.83
2022-12-13T17:29:24.532Z,16.20
2022-12-13T17:31:53.755Z,14.57
2022-12-13T17:34:22.554Z,15.83
2022-12-13T17:36:51.969Z,15.87
2022-12-13T17:39:21.081Z,14.97
2022-12-13T17:41:55.031Z,16.13
2022-12-13T17:44:26.698Z,16.63
2022-12-13T17:46:56.075Z,17.73
2022-12-13T17:49:24.358Z,15.50
2022-12-13T17:51:54.918Z,16.27
2022-12-13T17:54:23.760Z,17.57
2022-12-13T17:56:52.175Z,15.97
2022-12-13T17:59:22.319Z,15.60
2022-12-13T18:01:50.673Z,15.63
2022-12-13T18:04:18.998Z,16.00
2022-12-13T18:06:46.890Z,17.67
2022-12-13T18:09:17.361Z,15.23
2022-12-13T18:11:45.746Z,15.07
2022-12-13T18:14:13.421Z,14.73
2022-12-13T18:16:41.138Z,15.03
2022-12-13T18:19:11.626Z,15.63
2022-12-13T18:21:39.574Z,17.83
2022-12-13T18:24:08.128Z,18.30
2022-12-13T18:26:37.385Z,15.23
2022-12-13T18:29:05.829Z,15.73
2022-12-13T18:31:33.673Z,14.77
2022-12-13T18:34:01.476Z,16.13
2022-12-13T18:36:30.130Z,15.60
2022-12-13T18:38:57.931Z,15.17
2022-12-13T18:41:28.243Z,14.30
2022-12-13T18:43:59.647Z,14.63
2022-12-13T18:46:28.539Z,13.73
2022-12-13T18:48:56.705Z,15.97
2022-12-13T18:51:25.079Z,15.83
2022-12-13T18:53:53.099Z,16.30
2022-12-13T18:56:21.158Z,17.57
2022-12-13T18:58:49.670Z,17.63
2022-12-13T19:01:19.891Z,18.57
2022-12-13T19:03:49.571Z,15.30
2022-12-13T19:06:19.920Z,14.93
2022-12-13T19:08:49.310Z,16.07
2022-12-13T19:11:17.598Z,16.00
2022-12-13T19:13:45.844Z,15.77
2022-12-13T19:16:21.329Z,15.73
2022-12-13T19:18:49.477Z,15.73
2022-12-13T19:21:19.863Z,15.50
2022-12-13T19:23:54.975Z,16.33
2022-12-13T19:26:25.432Z,16.30
2022-12-13T19:28:53.223Z,16.70
2022-12-13T19:31:28.512Z,16.57
2022-12-13T19:33:59.311Z,16.07
2022-12-13T19:36:27.021Z,15.10
2022-12-13T19:38:56.923Z,17.23
2022-12-13T19:41:25.715Z,16.80
2022-12-13T19:43:54.115Z,16.80
2022-12-13T19:46:23.336Z,17.33
2022-12-13T19:48:51.107Z,17.13
2022-12-13T19:51:19.036Z,17.60
2022-12-13T19:53:47.072Z,16.33
2022-12-13T19:56:17.577Z,16.10
2022-12-13T19:58:46.203Z,16.50
2022-12-13T20:01:14.337Z,16.47
2022-12-13T20:03:45.129Z,15.80
2022-12-13T20:06:15.984Z,16.43
2022-12-13T20:08:43.958Z,17.17
2022-12-13T20:11:14.991Z,17.80
2022-12-13T20:13:42.761Z,17.20
2022-12-13T20:16:16.239Z,19.03
2022-12-13T20:18:46.002Z,18.83
2022-12-13T20:21:15.443Z,19.67
2022-12-13T20:23:49.496Z,26.00
2022-12-13T20:26:19.236Z,27.90
2022-12-13T20:28:47.446Z,24.20
2022-12-13T20:31:17.118Z,22.10
2022-12-13T20:33:46.320Z,19.00
2022-12-13T20:36:25.584Z,19.90
2022-12-13T20:38:55.158Z,19.67
2022-12-13T20:41:23.094Z,19.90
2022-12-13T20:43:52.456Z,18.87
2022-12-13T20:46:21.080Z,18.60
2022-12-13T20:48:51.149Z,18.63
2022-12-13T20:51:21.890Z,16.90
2022-12-13T20:53:51.546Z,17.67
2022-12-13T20:56:21.963Z,17.73
2022-12-13T20:58:50.404Z,16.50
2022-12-13T21:01:19.752Z,18.17
2022-12-13T21:03:47.983Z,18.50
2022-12-13T21:06:17.017Z,19.73
2022-12-13T21:08:54.440Z,20.53
2022-12-13T21:11:27.189Z,19.40
2022-12-13T21:13:59.961Z,19.83
2022-12-13T21:16:34.507Z,17.67
2022-12-13T21:19:02.647Z,16.17
2022-12-13T21:21:32.159Z,14.90
2022-12-13T21:24:00.581Z,16.40
2022-12-13T21:26:34.631Z,16.80
2022-12-13T21:29:06.333Z,16.80
2022-12-13T21:31:35.875Z,17.07
2022-12-13T21:34:05.326Z,17.33
2022-12-13T21:36:36.896Z,15.97
2022-12-13T21:39:08.226Z,15.60
2022-12-13T21:41:35.974Z,15.50
2022-12-13T21:44:03.647Z,15.90
2022-12-13T21:46:55.148Z,15.43
2022-12-13T21:49:19.208Z,16.17
2022-12-13T21:51:48.730Z,15.10
2022-12-13T21:54:18.358Z,15.50
2022-12-13T21:57:03.783Z,14.80
2022-12-13T21:59:31.900Z,14.40
2022-12-13T22:02:13.439Z,14.80
2022-12-13T22:04:43.499Z,15.03
2022-12-13T22:07:14.629Z,14.77
2022-12-13T22:09:42.306Z,15.73
2022-12-13T22:12:11.606Z,15.33
2022-12-13T22:14:39.272Z,15.20
2022-12-13T22:17:06.897Z,14.67
2022-12-13T22:19:34.631Z,14.60
2022-12-13T22:22:02.310Z,14.47
2022-12-13T22:24:31.637Z,14.73
2022-12-13T22:26:59.464Z,14.50
2022-12-13T22:29:27.592Z,14.97
2022-12-13T22:31:55.574Z,13.43
2022-12-13T22:34:23.455Z,14.07
2022-12-13T22:36:51.389Z,13.13
2022-12-13T22:39:21.616Z,12.67
2022-12-13T22:41:52.502Z,12.67
2022-12-13T22:44:21.398Z,12.40
2022-12-13T22:46:49.317Z,13.67
2022-12-13T22:49:17.810Z,12.67
2022-12-13T22:51:45.567Z,12.20
2022-12-13T22:54:13.309Z,12.97
2022-12-13T22:56:41.010Z,12.90
2022-12-13T22:59:10.477Z,12.50
2022-12-13T23:01:42.412Z,11.87
2022-12-13T23:04:14.966Z,12.40
2022-12-13T23:06:42.750Z,12.77
2022-12-13T23:09:13.485Z,12.47
2022-12-13T23:11:58.709Z,11.87
2022-12-13T23:14:29.833Z,12.50
2022-12-13T23:16:57.821Z,12.60
2022-12-13T23:19:49.859Z,11.80
2022-12-13T23:22:13.961Z,11.77
2022-12-13T23:24:41.867Z,13.10
2022-12-13T23:27:09.944Z,13.37
2022-12-13T23:29:39.373Z,12.80
2022-12-13T23:32:07.398Z,12.27
2022-12-13T23:34:35.309Z,12.20
2022-12-13T23:37:03.102Z,12.67
2022-12-13T23:39:30.802Z,12.50
2022-12-13T23:41:58.521Z,13.10
2022-12-13T23:44:26.313Z,11.67
2022-12-13T23:46:55.327Z,12.07
2022-12-13T23:49:22.987Z,11.23
2022-12-13T23:51:50.645Z,12.43
2022-12-13T23:54:20.067Z,12.17
2022-12-13T23:56:47.962Z,11.87
2022-12-13T23:59:18.216Z,13.03
